• Join FlightAware (Why Join?)
  • Login
  • US Flag 
11:09AM EDT


 

Airport Tracker/Info


-or-


 

Live Flight TrackerFlight Track Log ✈ UAL4693 ✈ 28-Apr-2013 ✈ KSTL - KEWR

Flight Track Log - Related Links

Times and Time Zones

All times are in EDT time to prevent confusion due to time zone crossing. See the UAL4693 flight status page for this flight to view local times or setup timezone preferences in your user account.

Time Position Orientation Groundspeed Altitude Reporting Facility
EDT Latitude Longitude Course Direction KTS MPH feet Rate Location/Type
10:58AM 38.7667 -90.4167 80° East 152 175 1,700  Level Gateway (St. Louis) TRACON
10:59AM 38.8167 -90.4167 360° North 208 239 3,200 1,260 Climbing Gateway (St. Louis) TRACON
11:00AM 38.8153 -90.3844 93° East 230 265 3,700 1,620 Climbing Kansas City Center
11:01AM 38.8122 -90.2903 92° East 249 287 5,800 2,220 Climbing Kansas City Center
11:02AM 38.7601 -89.8436 87° East  Level FlightAware Approximate
11:02AM 38.8081 -90.1725 93° East 267 307 8,300  Level Kansas City Center
11:03AM 38.7650 -89.7127 87° East  Level FlightAware Approximate
11:03AM 38.8047 -90.0711 92° East 279 321 10,300  Level Kansas City Center
11:04AM 38.7786 -89.5830 80° East  Level FlightAware Approximate
11:04AM 38.8011 -89.9628 92° East 296 341 11,500  Level Kansas City Center
11:05AM 38.7967 -89.8417 93° East 328 377 12,600 1,260 Climbing Kansas City Center
11:06AM 38.7922 -89.7181 93° East 343 395 14,200 1,380 Climbing Kansas City Center
11:07AM 38.7878 -89.5789 92° East 351 404 15,500 1,140 Climbing Kansas City Center
11:08AM 38.8008 -89.4411 83° East 367 422 16,600 1,020 Climbing Kansas City Center
11:09AM 38.8178 -89.3106 81° East 371 427 17,700 1,080 Climbing Kansas City Center
11:10AM 38.8344 -89.1761 81° East 380 437 18,900 1,200 Climbing Kansas City Center
11:11AM 38.8531 -89.0317 81° East 382 440 20,200 1,080 Climbing Kansas City Center
11:12AM 38.8700 -88.9036 80° East 390 449 21,200 1,020 Climbing Kansas City Center
11:14AM 38.9039 -88.6111 81° East 404 465 23,300 1,080 Climbing Indianapolis Center
11:15AM 38.9231 -88.4683 80° East 404 465 24,600 1,320 Climbing Indianapolis Center
11:16AM 38.9611 -88.3369 70° East 391 450 26,100 1,440 Climbing Indianapolis Center
11:17AM 38.9964 -88.2083 71° East 381 438 27,600 1,320 Climbing Indianapolis Center
11:18AM 39.0311 -88.0833 70° East 372 428 28,900 1,020 Climbing Indianapolis Center
11:19AM 39.0661 -87.9572 70° East 371 427 29,800 900 Climbing Indianapolis Center
11:20AM 39.1053 -87.8294 68° East 380 437 30,800 960 Climbing Indianapolis Center
11:21AM 39.1567 -87.7092 61° Northeast 380 437 31,800 1,020 Climbing Indianapolis Center
11:22AM 39.2108 -87.5806 61° Northeast 386 444 32,900 1,020 Climbing Indianapolis Center
11:23AM 39.2617 -87.4564 62° Northeast 388 447 33,900 900 Climbing Indianapolis Center
11:25AM 39.3133 -87.3333 61° Northeast 387 445 34,800 480 Climbing Indianapolis Center
11:26AM 39.3733 -87.1878 62° Northeast 393 452 35,000 60 Climbing Indianapolis Center
11:27AM 39.4278 -87.0533 62° Northeast 416 479 35,000  Level Indianapolis Center
11:28AM 39.4847 -86.9142 62° Northeast 433 498 35,000  Level Indianapolis Center
11:29AM 39.5439 -86.7703 62° Northeast 447 514 35,000  Level Indianapolis Center
11:30AM 39.6031 -86.6219 63° Northeast 460 529 35,000  Level Indianapolis Center
11:31AM 39.6608 -86.4786 62° Northeast 448 516 35,000  Level Indianapolis Center
11:32AM 39.7153 -86.3406 63° Northeast 436 502 35,000  Level Indianapolis Center
11:33AM 39.7728 -86.1997 62° Northeast 438 504 35,000  Level Indianapolis Center
11:34AM 39.8367 -86.0378 63° Northeast 450 518 35,000  Level Indianapolis Center
11:35AM 39.8953 -85.8883 63° Northeast 458 527 35,000  Level Indianapolis Center
11:36AM 39.9528 -85.7414 63° Northeast 456 525 35,000  Level Indianapolis Center
11:37AM 40.0086 -85.5978 63° Northeast 447 514 35,000  Level Indianapolis Center
11:38AM 40.0644 -85.4556 63° Northeast 440 506 35,000  Level Indianapolis Center
11:39AM 40.1183 -85.3147 63° Northeast 434 499 35,000  Level Indianapolis Center
11:40AM 40.1728 -85.1750 63° Northeast 430 495 35,000  Level Indianapolis Center
11:41AM 40.2278 -85.0306 63° Northeast 439 505 35,000  Level Indianapolis Center
11:42AM 40.2850 -84.8797 64° Northeast 447 514 35,000  Level Indianapolis Center
11:43AM 40.3433 -84.7281 63° Northeast 456 525 35,000  Level Indianapolis Center
11:44AM 40.3986 -84.5789 64° Northeast 448 516 35,000  Level Indianapolis Center
11:45AM 40.4650 -84.4047 63° Northeast 453 521 35,000  Level Indianapolis Center
11:46AM 40.5217 -84.2503 64° Northeast 462 532 35,000  Level Indianapolis Center
11:47AM 40.5797 -84.0947 64° Northeast 467 537 35,000  Level Indianapolis Center
11:48AM 40.6372 -83.9386 64° Northeast 467 537 35,000  Level Indianapolis Center
11:49AM 40.6950 -83.7825 64° Northeast 466 536 35,000  Level Indianapolis Center
11:50AM 40.7506 -83.6278 65° Northeast 463 533 35,100 360 Climbing Indianapolis Center
11:51AM 40.7900 -83.5231 64° Northeast 457 526 35,700 480 Climbing Cleveland Center
11:52AM 40.8417 -83.3744 65° Northeast 452 520 36,000 120 Climbing Cleveland Center
11:53AM 40.8975 -83.2203 64° Northeast 460 529 36,000  Level Cleveland Center
11:54AM 40.9531 -83.0658 64° Northeast 460 529 36,000  Level Cleveland Center
11:55AM 41.0153 -82.8947 64° Northeast 460 529 36,100 480 Climbing Cleveland Center
11:56AM 41.0619 -82.7422 68° East 454 522 37,000 420 Climbing Cleveland Center
11:57AM 41.0919 -82.5833 76° East 444 511 37,000  Level Cleveland Center
11:58AM 41.1217 -82.4244 76° East 439 505 37,000  Level Cleveland Center
11:59AM 41.1492 -82.2625 77° East 446 513 37,000  Level Cleveland Center
12:00PM 41.1739 -82.1306 76° East 452 520 37,000  Level Cleveland Center
12:01PM 41.2097 -81.9494 75° East 452 520 37,000  Level Cleveland Center
12:02PM 41.2367 -81.7814 78° East 452 520 37,000  Level Cleveland Center
12:03PM 41.2653 -81.6164 77° East 452 520 37,000  Level Cleveland Center
12:04PM 41.2958 -81.4481 76° East 457 526 37,000  Level Cleveland Center
12:05PM 41.3264 -81.2633 78° East 457 526 37,000  Level Cleveland Center
12:06PM 41.3544 -81.0894 78° East 470 541 37,000  Level Cleveland Center
12:07PM 41.3819 -80.9236 77° East 465 535 37,000  Level Cleveland Center
12:08PM 41.4117 -80.7519 77° East 471 542 37,000  Level Cleveland Center
12:09PM 41.4408 -80.5803 77° East 471 542 37,000  Level Cleveland Center
12:10PM 41.4678 -80.4086 78° East 471 542 37,000  Level Cleveland Center
12:11PM 41.4947 -80.2506 77° East 480 552 37,000  Level Cleveland Center
12:12PM 41.5231 -80.0756 78° East 480 552 37,000  Level Cleveland Center
12:13PM 41.5533 -79.8839 78° East 480 552 37,000  Level Cleveland Center
12:14PM 41.5814 -79.7058 78° East 485 558 37,000  Level Cleveland Center
12:15PM 41.6092 -79.5250 78° East 490 564 37,000  Level Cleveland Center
12:16PM 41.6364 -79.3467 78° East 490 564 37,000  Level Cleveland Center
12:17PM 41.6531 -79.1686 83° East 490 564 37,000  Level Cleveland Center
12:18PM 41.6342 -78.9911 98° East 475 547 37,000  Level Cleveland Center
12:19PM 41.6128 -78.8167 99° East 475 547 37,000 -660 Level Cleveland Center
12:20PM 41.5933 -78.6369 98° East 482 555 35,700 -1,440 Descending Cleveland Center
12:21PM 41.5714 -78.4569 99° East 487 560 34,200 -1,560 Descending Cleveland Center
12:23PM 41.5381 -78.1822 99° East 471 542 31,500 -1,860 Descending New York Center
12:24PM 41.5172 -78.0108 99° East 471 542 29,200 -1,260 Descending New York Center
12:25PM 41.4939 -77.8450 101° East 466 536 29,000 -120 Descending New York Center
12:26PM 41.4706 -77.6761 100° East 461 531 29,000  Level New York Center
12:27PM 41.4453 -77.5019 101° East 461 531 29,000  Level New York Center
12:28PM 41.4178 -77.3194 101° East 461 531 29,000  Level New York Center
12:29PM 41.3917 -77.1481 101° East 461 531 29,000  Level New York Center
12:30PM 41.3678 -76.9744 100° East 461 531 29,000 -720 Level New York Center
12:31PM 41.3428 -76.8117 102° East 479 551 27,600 -1,860 Descending New York Center
12:32PM 41.3011 -76.6422 108° East 479 551 25,300 -2,340 Descending New York Center
12:33PM 41.2572 -76.4783 110° East 479 551 23,100 -2,340 Descending New York Center
12:34PM 41.2142 -76.3286 111° Southeast 456 525 20,800 -2,460 Descending New York Center
12:35PM 41.1739 -76.1653 108° East 428 493 18,200 -1,440 Descending New York Center
12:36PM 41.1344 -76.0217 110° East 417 480 18,000 -120 Descending New York Center
12:37PM 41.0986 -75.8922 110° East 417 480 18,000  Level New York Center
12:38PM 41.0606 -75.7544 110° East 412 474 18,000 -960 Level New York Center
12:39PM 41.0192 -75.5975 109° East 412 474 16,200 -2,220 Descending New York Center
12:40PM 40.9808 -75.4656 111° Southeast 391 450 13,600 -2,520 Descending New York Center
12:41PM 40.9478 -75.3506 111° Southeast 376 433 11,300 -1,800 Descending New York Center
12:42PM 40.9186 -75.2417 109° East 341 392 10,000 -1,620 Descending New York Center
12:43PM 40.8892 -75.1353 110° East 286 329 8,100 -1,560 Descending New York Center
12:44PM 40.8678 -75.0408 107° East 272 313 7,000 -600 Descending New York Center
12:45PM 40.8461 -74.9461 107° East 267 307 7,000  Level New York Center
12:46PM 40.8244 -74.8489 106° East 267 307 7,000 -240 Level New York Center
12:47PM 40.8383 -74.7536 79° East 258 297 6,600 -600 Descending New York Center
12:48PM 40.8661 -74.6647 68° East 258 297 5,900 -300 Descending New York Center
12:49PM 40.9156 -74.6181 35° Northeast 222 255 6,000  Climbing New York Center
12:50PM 40.9731 -74.5803 26° Northeast 222 255 6,000 -420 Level New York Center
12:51PM 40.9944 -74.4989 71° East 217 250 5,200 -540 Descending New York Center
12:52PM 41.0094 -74.4172 76° East 227 261 5,000 -120 Descending New York Center
12:53PM 41.0225 -74.3300 79° East 239 275 5,000  Level New York Center
12:54PM 40.9978 -74.2544 113° Southeast 222 255 5,000 -480 Level New York Center
12:55PM 40.9786 -74.1956 113° Southeast 210 242 4,100 -480 Descending New York Center
12:56PM 40.9556 -74.1314 115° Southeast 199 229 4,100 -420 Level New York Center
12:57PM 40.9167 -74.0500 122° Southeast 204 235 3,200 -480 Descending New York TRACON
12:58PM 40.8500 -74.0667 191° South 173 199 3,100 -300 Descending New York TRACON
12:59PM 40.8167 -74.0833 201° Southwest 174 200 2,600 -540 Descending New York TRACON